createdAt,value
2019-04-03T00:00:01.205Z,67.36
2019-04-03T00:02:50.796Z,67.33
2019-04-03T00:05:40.839Z,67.28
2019-04-03T00:08:30.112Z,67.40
2019-04-03T00:11:19.963Z,67.40
2019-04-03T00:14:12.201Z,67.52
2019-04-03T00:17:00.937Z,67.47
2019-04-03T00:19:49.967Z,67.45
2019-04-03T00:22:39.761Z,67.46
2019-04-03T00:25:29.996Z,67.53
2019-04-03T00:28:22.017Z,67.37
2019-04-03T00:31:10.961Z,67.58
2019-04-03T00:34:04.781Z,67.53
2019-04-03T00:36:54.246Z,67.47
2019-04-03T00:39:43.578Z,67.48
2019-04-03T00:42:33.081Z,67.36
2019-04-03T00:45:24.467Z,67.48
2019-04-03T00:48:14.403Z,67.42
2019-04-03T00:51:03.597Z,67.38
2019-04-03T00:53:52.795Z,67.43
2019-04-03T00:56:42.069Z,67.34
2019-04-03T00:59:31.198Z,67.33
2019-04-03T01:02:20.938Z,67.34
2019-04-03T01:05:09.864Z,67.38
2019-04-03T01:08:00.161Z,67.37
2019-04-03T01:10:49.913Z,67.43
2019-04-03T01:13:39.214Z,67.58
2019-04-03T01:16:28.444Z,67.42
2019-04-03T01:19:18.165Z,67.38
2019-04-03T01:22:08.058Z,67.34
2019-04-03T01:24:57.365Z,67.35
2019-04-03T01:27:46.393Z,67.43
2019-04-03T01:30:36.211Z,67.38
2019-04-03T01:33:25.607Z,67.50
2019-04-03T01:36:17.133Z,67.43
2019-04-03T01:39:07.674Z,67.43
2019-04-03T01:41:56.623Z,67.44
2019-04-03T01:44:46.419Z,67.52
2019-04-03T01:47:36.485Z,67.49
2019-04-03T01:50:28.323Z,67.46
2019-04-03T01:53:18.084Z,67.51
2019-04-03T01:56:07.295Z,67.54
2019-04-03T01:58:56.575Z,67.52
2019-04-03T02:01:45.448Z,67.52
2019-04-03T02:04:34.999Z,67.60
2019-04-03T02:07:24.670Z,67.65
2019-04-03T02:10:18.433Z,67.67
2019-04-03T02:13:07.798Z,67.57
2019-04-03T02:15:57.286Z,67.66
2019-04-03T02:18:46.353Z,67.64
2019-04-03T02:21:35.985Z,67.64
2019-04-03T02:24:25.589Z,67.55
2019-04-03T02:27:15.085Z,67.80
2019-04-03T02:30:09.711Z,67.63
2019-04-03T02:32:59.561Z,67.72
2019-04-03T02:35:48.887Z,67.68
2019-04-03T02:38:38.337Z,67.65
2019-04-03T02:41:27.678Z,67.60
2019-04-03T02:44:19.152Z,67.47
2019-04-03T02:47:07.792Z,67.60
2019-04-03T02:49:56.854Z,67.46
2019-04-03T02:52:59.518Z,67.60
2019-04-03T02:55:49.232Z,67.64
2019-04-03T02:58:38.367Z,67.51
2019-04-03T03:01:28.507Z,67.56
2019-04-03T03:04:20.548Z,67.52
2019-04-03T03:07:08.563Z,67.54
2019-04-03T03:09:58.357Z,67.58
2019-04-03T03:12:47.548Z,67.53
2019-04-03T03:15:37.957Z,67.63
2019-04-03T03:18:28.782Z,67.62
2019-04-03T03:21:19.605Z,67.67
2019-04-03T03:24:09.130Z,67.57
2019-04-03T03:26:59.316Z,67.60
2019-04-03T03:29:48.926Z,67.52
2019-04-03T03:32:39.491Z,67.63
2019-04-03T03:35:38.713Z,67.56
2019-04-03T03:38:20.326Z,67.59
2019-04-03T03:41:10.083Z,67.57
2019-04-03T03:43:59.952Z,67.63
2019-04-03T03:46:51.224Z,67.71
2019-04-03T03:49:41.117Z,67.64
2019-04-03T03:52:35.959Z,67.63
2019-04-03T03:55:25.500Z,67.66
2019-04-03T03:58:14.690Z,67.64
2019-04-03T04:01:04.179Z,67.74
2019-04-03T04:03:53.192Z,67.84
2019-04-03T04:06:42.799Z,67.62
2019-04-03T04:09:31.952Z,67.73
2019-04-03T04:12:21.737Z,67.69
2019-04-03T04:15:11.309Z,67.79
2019-04-03T04:18:01.367Z,67.75
2019-04-03T04:20:50.557Z,67.74
2019-04-03T04:23:40.161Z,67.71
2019-04-03T04:26:31.609Z,67.79
2019-04-03T04:29:22.265Z,67.88
2019-04-03T04:32:14.535Z,67.78
2019-04-03T04:35:03.348Z,67.80
2019-04-03T04:37:55.975Z,67.74
2019-04-03T04:40:44.929Z,67.73
2019-04-03T04:43:35.498Z,67.77
2019-04-03T04:46:25.982Z,67.78
2019-04-03T04:49:15.704Z,67.84
2019-04-03T04:52:04.781Z,67.93
2019-04-03T04:54:54.665Z,67.91
2019-04-03T04:57:46.409Z,67.82
2019-04-03T05:00:36.108Z,67.88
2019-04-03T05:03:26.411Z,68.97
2019-04-03T05:06:15.796Z,68.90
2019-04-03T05:09:07.325Z,68.60
2019-04-03T05:11:56.035Z,68.37
2019-04-03T05:14:46.847Z,68.43
2019-04-03T05:17:37.348Z,68.33
2019-04-03T05:20:26.708Z,68.24
2019-04-03T05:23:16.523Z,68.30
2019-04-03T05:26:06.596Z,68.32
2019-04-03T05:28:57.745Z,68.33
2019-04-03T05:31:48.518Z,68.19
2019-04-03T05:34:38.555Z,68.03
2019-04-03T05:37:28.750Z,68.02
2019-04-03T05:40:18.686Z,67.96
2019-04-03T05:43:08.295Z,67.93
2019-04-03T05:45:57.739Z,67.99
2019-04-03T05:48:48.640Z,68.00
2019-04-03T05:51:37.610Z,67.91
2019-04-03T05:54:26.692Z,67.80
2019-04-03T05:57:16.173Z,67.92
2019-04-03T06:00:07.427Z,68.03
2019-04-03T06:02:58.178Z,67.93
2019-04-03T06:05:47.644Z,67.96
2019-04-03T06:08:36.607Z,68.43
2019-04-03T06:11:25.900Z,68.57
2019-04-03T06:14:16.818Z,68.38
2019-04-03T06:17:25.593Z,68.25
2019-04-03T06:20:15.166Z,68.12
2019-04-03T06:23:05.303Z,68.15
2019-04-03T06:25:56.119Z,69.63
2019-04-03T06:28:47.604Z,68.83
2019-04-03T06:31:37.518Z,68.59
2019-04-03T06:34:27.144Z,68.36
2019-04-03T06:37:15.936Z,68.28
2019-04-03T06:40:06.505Z,68.16
2019-04-03T06:42:56.296Z,68.10
2019-04-03T06:45:46.255Z,68.03
2019-04-03T06:48:37.140Z,68.00
2019-04-03T06:51:26.844Z,67.97
2019-04-03T06:54:16.401Z,68.06
2019-04-03T06:57:05.784Z,67.92
2019-04-03T06:59:54.750Z,67.90
2019-04-03T07:02:44.222Z,67.93
2019-04-03T07:05:33.770Z,67.92
2019-04-03T07:08:32.477Z,67.92
2019-04-03T07:11:23.365Z,67.93
2019-04-03T07:14:06.204Z,67.99
2019-04-03T07:16:55.691Z,68.05
2019-04-03T07:19:46.534Z,68.13
2019-04-03T07:22:35.707Z,68.05
2019-04-03T07:25:25.735Z,67.99
2019-04-03T07:28:15.867Z,68.13
2019-04-03T07:31:05.263Z,67.97
2019-04-03T07:33:57.793Z,68.06
2019-04-03T07:36:46.448Z,68.04
2019-04-03T07:39:36.238Z,67.92
2019-04-03T07:42:25.614Z,67.90
2019-04-03T07:45:15.188Z,67.85
2019-04-03T07:48:06.622Z,67.78
2019-04-03T07:50:56.559Z,68.10
2019-04-03T07:53:46.215Z,68.71
2019-04-03T07:56:35.730Z,69.00
2019-04-03T07:59:24.914Z,68.62
2019-04-03T08:02:14.181Z,68.49
2019-04-03T08:05:03.600Z,68.38
2019-04-03T08:07:53.172Z,68.20
2019-04-03T08:10:43.173Z,68.53
2019-04-03T08:13:32.251Z,68.46
2019-04-03T08:16:21.713Z,68.56
2019-04-03T08:19:11.311Z,68.98
2019-04-03T08:22:02.073Z,68.90
2019-04-03T08:24:53.626Z,68.63
2019-04-03T08:27:43.140Z,68.38
2019-04-03T08:30:33.355Z,68.28
2019-04-03T08:33:26.259Z,67.97
2019-04-03T08:36:23.290Z,67.98
2019-04-03T08:39:05.618Z,67.97
2019-04-03T08:41:56.181Z,68.25
2019-04-03T08:44:46.412Z,68.67
2019-04-03T08:47:37.578Z,68.56
2019-04-03T08:50:28.805Z,68.76
2019-04-03T08:53:19.174Z,68.75
2019-04-03T08:56:08.563Z,68.03
2019-04-03T08:58:58.539Z,68.24
2019-04-03T09:01:48.302Z,69.53
2019-04-03T09:04:37.874Z,69.65
2019-04-03T09:07:27.818Z,68.40
2019-04-03T09:10:19.410Z,69.74
2019-04-03T09:13:16.787Z,68.44
2019-04-03T09:16:00.904Z,68.11
2019-04-03T09:18:52.790Z,67.68
2019-04-03T09:21:42.463Z,68.05
2019-04-03T09:24:33.126Z,66.43
2019-04-03T09:27:22.542Z,65.96
2019-04-03T09:30:15.879Z,67.21
2019-04-03T09:33:03.251Z,65.29
2019-04-03T09:35:52.461Z,65.96
2019-04-03T09:38:41.971Z,66.30
2019-04-03T09:41:31.710Z,65.52
2019-04-03T09:44:21.165Z,66.38
2019-04-03T09:47:12.929Z,66.06
2019-04-03T09:50:02.638Z,66.37
2019-04-03T09:52:54.907Z,66.16
2019-04-03T09:55:45.567Z,65.53
2019-04-03T09:58:35.619Z,65.09
2019-04-03T10:01:28.574Z,65.03
2019-04-03T10:04:16.195Z,65.83
2019-04-03T10:07:16.882Z,65.55
2019-04-03T10:10:10.353Z,66.57
2019-04-03T10:13:00.435Z,64.10
2019-04-03T10:15:50.734Z,63.66
2019-04-03T10:18:41.807Z,63.30
2019-04-03T10:21:33.608Z,63.07
2019-04-03T10:24:23.759Z,63.10
2019-04-03T10:27:14.136Z,61.73
2019-04-03T10:30:04.191Z,61.81
2019-04-03T10:32:54.700Z,62.64
2019-04-03T10:35:46.768Z,62.31
2019-04-03T10:38:34.898Z,63.01
2019-04-03T10:41:27.651Z,62.90
2019-04-03T10:44:17.140Z,63.02
2019-04-03T10:47:07.337Z,63.22
2019-04-03T10:49:56.392Z,63.15
2019-04-03T10:52:49.099Z,63.57
2019-04-03T10:55:39.095Z,61.99
2019-04-03T10:58:29.021Z,63.50
2019-04-03T11:01:21.509Z,63.10
2019-04-03T11:04:11.094Z,63.04
2019-04-03T11:07:00.133Z,63.11
2019-04-03T11:09:50.305Z,62.84
2019-04-03T11:12:39.247Z,62.64
2019-04-03T11:15:28.206Z,62.25
2019-04-03T11:18:18.867Z,61.79
2019-04-03T11:21:09.230Z,61.79
2019-04-03T11:24:02.658Z,62.54
2019-04-03T11:26:55.611Z,62.96
2019-04-03T11:29:48.354Z,63.10
2019-04-03T11:32:42.179Z,63.38
2019-04-03T11:35:32.291Z,63.79
2019-04-03T11:38:27.056Z,63.49
2019-04-03T11:41:18.637Z,63.53
2019-04-03T11:44:05.095Z,63.72
2019-04-03T11:46:55.897Z,63.84
2019-04-03T11:49:46.947Z,63.76
2019-04-03T11:52:36.051Z,64.28
2019-04-03T11:55:26.655Z,64.48
2019-04-03T11:58:21.156Z,63.84
2019-04-03T12:01:11.573Z,63.16
2019-04-03T12:04:02.896Z,62.41
2019-04-03T12:06:55.278Z,61.85
2019-04-03T12:09:45.966Z,61.44
2019-04-03T12:12:36.016Z,61.99
2019-04-03T12:15:25.521Z,61.93
2019-04-03T12:18:19.313Z,61.88
2019-04-03T12:21:13.427Z,62.19
2019-04-03T12:24:02.037Z,62.41
2019-04-03T12:26:55.077Z,61.26
2019-04-03T12:29:44.291Z,60.93
2019-04-03T12:32:38.470Z,61.36
2019-04-03T12:35:25.466Z,61.43
2019-04-03T12:38:18.178Z,61.54
2019-04-03T12:41:10.159Z,61.66
2019-04-03T12:44:01.628Z,61.83
2019-04-03T12:46:53.024Z,61.47
2019-04-03T12:49:45.763Z,60.59
2019-04-03T12:52:35.733Z,59.86
2019-04-03T12:55:28.591Z,58.70
2019-04-03T12:58:19.317Z,57.77
2019-04-03T13:01:11.327Z,57.64
2019-04-03T13:04:00.607Z,57.57
2019-04-03T13:06:50.471Z,57.46
2019-04-03T13:09:39.919Z,56.79
2019-04-03T13:12:29.242Z,56.66
2019-04-03T13:15:19.616Z,54.67
2019-04-03T13:18:10.241Z,54.80
2019-04-03T13:21:00.260Z,55.47
2019-04-03T13:23:50.094Z,56.15
2019-04-03T13:26:39.725Z,57.19
2019-04-03T13:29:29.799Z,57.60
2019-04-03T13:32:22.229Z,57.73
2019-04-03T13:35:15.504Z,58.11
2019-04-03T13:38:05.210Z,58.31
2019-04-03T13:40:54.523Z,57.83
2019-04-03T13:43:43.762Z,58.11
2019-04-03T13:46:35.726Z,58.10
2019-04-03T13:49:24.706Z,58.45
2019-04-03T13:52:15.518Z,58.79
2019-04-03T13:55:05.346Z,58.89
2019-04-03T13:57:55.872Z,59.26
2019-04-03T14:00:57.664Z,59.08
2019-04-03T14:03:36.313Z,59.93
2019-04-03T14:06:45.154Z,59.75
2019-04-03T14:09:35.013Z,59.92
2019-04-03T14:12:27.325Z,60.33
2019-04-03T14:15:19.932Z,60.28
2019-04-03T14:18:13.334Z,60.62
2019-04-03T14:21:03.593Z,60.92
2019-04-03T14:23:54.817Z,61.38
2019-04-03T14:26:46.413Z,61.46
2019-04-03T14:29:38.528Z,61.74
2019-04-03T14:32:26.508Z,61.39
2019-04-03T14:35:44.309Z,61.18
2019-04-03T14:38:07.796Z,61.48
2019-04-03T14:40:57.292Z,61.17
2019-04-03T14:43:46.637Z,61.02
2019-04-03T14:46:36.162Z,61.09
2019-04-03T14:49:25.450Z,61.12
2019-04-03T14:52:15.028Z,60.68
2019-04-03T14:55:17.065Z,60.29
2019-04-03T14:57:57.061Z,60.11
2019-04-03T15:00:48.505Z,60.19
2019-04-03T15:03:37.499Z,60.19
2019-04-03T15:06:27.011Z,60.46
2019-04-03T15:09:15.845Z,60.68
2019-04-03T15:12:06.636Z,60.53
2019-04-03T15:14:56.001Z,61.11
2019-04-03T15:17:46.024Z,61.40
2019-04-03T15:20:35.429Z,61.74
2019-04-03T15:23:25.095Z,62.11
2019-04-03T15:26:14.710Z,62.31
2019-04-03T15:29:04.894Z,62.52
2019-04-03T15:31:54.781Z,62.56
2019-04-03T15:34:44.996Z,62.64
2019-04-03T15:37:34.928Z,62.67
2019-04-03T15:40:25.885Z,62.72
2019-04-03T15:43:16.283Z,62.70
2019-04-03T15:46:05.835Z,62.68
2019-04-03T15:48:55.647Z,62.67
2019-04-03T15:51:45.218Z,62.50
2019-04-03T15:54:34.320Z,62.46
2019-04-03T15:57:23.744Z,62.48
2019-04-03T16:00:14.874Z,62.43
2019-04-03T16:03:04.964Z,62.24
2019-04-03T16:05:55.268Z,62.28
2019-04-03T16:08:47.363Z,61.95
2019-04-03T16:11:35.864Z,61.65
2019-04-03T16:14:27.784Z,61.29
2019-04-03T16:17:16.806Z,61.44
2019-04-03T16:20:06.149Z,60.90
2019-04-03T16:22:55.784Z,60.79
2019-04-03T16:25:48.491Z,60.25
2019-04-03T16:28:37.174Z,60.50
2019-04-03T16:31:27.226Z,60.89
2019-04-03T16:34:17.325Z,59.97
2019-04-03T16:37:07.141Z,59.19
2019-04-03T16:39:57.338Z,58.95
2019-04-03T16:42:48.281Z,59.10
2019-04-03T16:45:39.540Z,59.36
2019-04-03T16:48:29.402Z,59.69
2019-04-03T16:51:19.149Z,59.80
2019-04-03T16:54:11.866Z,59.28
2019-04-03T16:57:01.329Z,59.73
2019-04-03T16:59:50.678Z,59.57
2019-04-03T17:02:40.815Z,59.38
2019-04-03T17:05:31.159Z,59.70
2019-04-03T17:08:20.709Z,60.12
2019-04-03T17:11:12.058Z,59.96
2019-04-03T17:14:01.169Z,59.48
2019-04-03T17:16:50.583Z,59.83
2019-04-03T17:19:40.151Z,59.90
2019-04-03T17:22:29.901Z,60.38
2019-04-03T17:25:19.710Z,60.59
2019-04-03T17:28:10.184Z,61.11
2019-04-03T17:30:59.981Z,61.55
2019-04-03T17:33:49.226Z,61.95
2019-04-03T17:36:38.274Z,62.38
2019-04-03T17:39:28.059Z,62.62
2019-04-03T17:42:17.523Z,62.79
2019-04-03T17:45:07.256Z,62.88
2019-04-03T17:47:57.001Z,62.89
2019-04-03T17:50:51.441Z,62.93
2019-04-03T17:53:42.021Z,63.06
2019-04-03T17:56:35.524Z,63.21
2019-04-03T17:59:26.512Z,63.32
2019-04-03T18:02:16.168Z,63.35
2019-04-03T18:05:08.411Z,63.41
2019-04-03T18:08:00.236Z,63.51
2019-04-03T18:10:49.637Z,63.55
2019-04-03T18:13:40.860Z,63.57
2019-04-03T18:16:33.604Z,63.71
2019-04-03T18:19:36.541Z,63.81
2019-04-03T18:22:14.880Z,63.85
2019-04-03T18:25:07.910Z,63.88
2019-04-03T18:27:56.623Z,64.03
2019-04-03T18:30:49.162Z,64.07
2019-04-03T18:33:40.637Z,64.12
2019-04-03T18:36:31.455Z,64.20
2019-04-03T18:39:25.067Z,64.26
2019-04-03T18:42:19.265Z,64.27
2019-04-03T18:45:24.053Z,64.37
2019-04-03T18:48:02.117Z,64.41
2019-04-03T18:50:50.965Z,64.50
2019-04-03T18:53:40.659Z,64.58
2019-04-03T18:56:32.206Z,64.67
2019-04-03T18:59:21.824Z,64.71
2019-04-03T19:02:11.841Z,64.82
2019-04-03T19:05:09.897Z,64.93
2019-04-03T19:07:58.303Z,64.97
2019-04-03T19:10:47.868Z,65.09
2019-04-03T19:13:37.228Z,65.22
2019-04-03T19:16:29.626Z,65.26
2019-04-03T19:19:17.602Z,65.44
2019-04-03T19:22:07.596Z,65.33
2019-04-03T19:24:59.254Z,65.49
2019-04-03T19:27:49.842Z,65.51
2019-04-03T19:30:40.760Z,65.59
2019-04-03T19:33:30.477Z,65.61
2019-04-03T19:36:20.572Z,65.64
2019-04-03T19:39:10.451Z,65.66
2019-04-03T19:42:00.116Z,65.64
2019-04-03T19:44:50.101Z,65.73
2019-04-03T19:47:39.297Z,65.65
2019-04-03T19:50:31.467Z,65.59
2019-04-03T19:53:20.179Z,65.66
2019-04-03T19:56:09.964Z,65.69
2019-04-03T19:59:00.225Z,65.87
2019-04-03T20:01:50.246Z,65.94
2019-04-03T20:04:39.745Z,65.95
2019-04-03T20:07:29.026Z,66.08
2019-04-03T20:10:19.033Z,66.05
2019-04-03T20:13:09.240Z,66.01
2019-04-03T20:15:58.965Z,66.04
2019-04-03T20:18:48.952Z,66.03
2019-04-03T20:21:37.920Z,66.07
2019-04-03T20:24:29.954Z,66.07
2019-04-03T20:27:19.626Z,66.11
2019-04-03T20:30:09.333Z,66.13
2019-04-03T20:32:58.983Z,66.27
2019-04-03T20:35:49.651Z,66.25
2019-04-03T20:38:40.599Z,66.58
2019-04-03T20:41:30.864Z,66.60
2019-04-03T20:44:24.219Z,66.66
2019-04-03T20:47:15.608Z,66.70
2019-04-03T20:50:08.805Z,66.64
2019-04-03T20:53:00.773Z,66.66
2019-04-03T20:55:50.799Z,66.62
2019-04-03T20:58:41.444Z,66.67
2019-04-03T21:01:31.916Z,66.65
2019-04-03T21:04:22.047Z,66.64
2019-04-03T21:07:15.521Z,66.73
2019-04-03T21:10:06.631Z,66.67
2019-04-03T21:12:57.585Z,66.70
2019-04-03T21:15:57.034Z,66.80
2019-04-03T21:18:51.841Z,66.78
2019-04-03T21:21:45.134Z,66.80
2019-04-03T21:24:37.640Z,66.80
2019-04-03T21:27:30.082Z,66.83
2019-04-03T21:30:20.043Z,66.79
2019-04-03T21:33:11.293Z,66.84
2019-04-03T21:36:01.476Z,66.77
2019-04-03T21:38:53.214Z,66.77
2019-04-03T21:41:48.028Z,66.83
2019-04-03T21:44:40.167Z,66.89
2019-04-03T21:47:32.496Z,66.87
2019-04-03T21:50:24.970Z,66.79
2019-04-03T21:53:18.083Z,66.82
2019-04-03T21:56:10.485Z,66.85
2019-04-03T21:59:03.338Z,66.90
2019-04-03T22:01:55.590Z,66.88
2019-04-03T22:04:48.923Z,66.87
2019-04-03T22:07:39.865Z,66.92
2019-04-03T22:10:32.798Z,66.91
2019-04-03T22:13:22.299Z,66.92
2019-04-03T22:16:11.961Z,66.93
2019-04-03T22:19:05.539Z,66.91
2019-04-03T22:21:56.932Z,66.94
2019-04-03T22:24:48.312Z,66.86
2019-04-03T22:27:37.601Z,66.93
2019-04-03T22:30:27.521Z,66.91
2019-04-03T22:33:16.670Z,66.91
2019-04-03T22:36:05.434Z,66.96
2019-04-03T22:38:55.188Z,67.02
2019-04-03T22:41:44.861Z,67.05
2019-04-03T22:44:34.507Z,67.03
2019-04-03T22:47:25.207Z,67.09
2019-04-03T22:50:15.896Z,67.13
2019-04-03T22:53:05.486Z,67.10
2019-04-03T22:55:54.443Z,67.05
2019-04-03T22:58:43.471Z,67.07
2019-04-03T23:01:33.136Z,66.97
2019-04-03T23:04:22.806Z,67.16
2019-04-03T23:07:12.596Z,67.15
2019-04-03T23:10:02.368Z,67.27
2019-04-03T23:12:51.944Z,67.20
2019-04-03T23:15:41.506Z,67.18
2019-04-03T23:18:31.148Z,67.18
2019-04-03T23:21:23.510Z,67.06
2019-04-03T23:24:11.213Z,67.24
2019-04-03T23:27:02.360Z,67.22
2019-04-03T23:29:51.882Z,67.30
2019-04-03T23:32:41.306Z,67.29
2019-04-03T23:35:30.993Z,67.28
2019-04-03T23:38:20.076Z,67.32
2019-04-03T23:41:09.569Z,67.35
2019-04-03T23:43:58.428Z,67.30
2019-04-03T23:46:47.745Z,67.29
2019-04-03T23:49:37.639Z,67.36
2019-04-03T23:52:28.024Z,67.41
2019-04-03T23:55:17.599Z,67.39
2019-04-03T23:58:07.184Z,67.41
